Terminal Aerodrome Forecast
Issued by NWS Wakefield, VA

Home | Current Version | Previous Version | Text Only | Print | Product List | Glossary On
Versions: 1 2 3 4 5 6 7 8 9 10 11 12 13 14 15 16
049
FTUS41 KAKQ 140136 AAA
TAFORF
TAF AMD
KORF 140136Z 1402/1424 21007KT P6SM BKN080
     FM140600 21011KT P6SM BKN100
     FM141300 25014G21KT P6SM SKC
     FM141700 29014G21KT P6SM SKC
     FM142100 33008KT P6SM SKC=

USA.gov is the U.S. government's official web portal to all federal, state and local government web resources and services.